Airfield :
LOGIN :

Register | Disclaimer

   EN    FR    IT 

 










Legend :    VFR   Marginal VFR   IFR   Intensive IFR   Very Intensive IFR
Visi :
Ceiling :
>= 8 km
>= 3000ft
5 to 8 km
1000 to 3000 ft
1500m to 5 km
500 to 1000 ft
800 to 1500m
200 to 500 ft
< 800m
< 200 ft
Symbols :   Thunderstorms  Fog  Heavy snow  Heavy precipitations  Wind > 20 kt
SIGMETs :     Misc.  Thunderstorms  Icing  Turbulence  Mountain Waves  Volcanic Ashes






- Airport Elevation : 614 ft
- IATA code : CRL


EBCI - Charleroi

CURRENT METAR :
  • 260020Z 17005KT CAVOK 06/04 Q1019 NOSIG

EXPIRED METARs :
  • 252350Z 20004KT CAVOK 06/04 Q1019 NOSIG
  • 252320Z 19004KT 9999 SCT038 06/05 Q1019 NOSIG
  • 252250Z 22003KT 9999 SCT038 07/04 Q1019 NOSIG
  • 252220Z 19004KT 150V220 9999 SCT038 07/05 Q1019 NOSIG
  • 252150Z 18005KT 9999 BKN038 07/05 Q1019 NOSIG

TAF TAF EBCI
Valid from the 26 at 00:00 until the 27 at 06:00 UTC


252310Z 2600/2706 19004KT 9999 BKN035
PROB30 2621/2706 1500 BR -DZ BKN004
PROB40
TEMPO 2622/2706 0400 FG BKN001



MET'MAP, your aeronautical weather chart ! - Copyright ORBIFLY December 2007 - Disclaimer

ORBIFLY MET'MAP TEAM :

Programming & Development : Alexandra Zaïnal
Concept & original design : Baudouin d'Aumeries
Assistance for programming : Marc-Olivier Méhu
Technical & hardware support : Manuel Goepfert

Contact : metmap@orbifly.com




SOURCES & CREDITS :

   NOAA